sensor_id;sensor_type;location;lat;lon;timestamp;P1;durP1;ratioP1;P2;durP2;ratioP2
50769;SDS011;36740;48.698;11.472;2023-04-15T00:00:48;9.95;;;4.55;;
50769;SDS011;36740;48.698;11.472;2023-04-15T00:03:35;11.38;;;5.50;;
50769;SDS011;36740;48.698;11.472;2023-04-15T00:06:21;9.98;;;6.90;;
50769;SDS011;36740;48.698;11.472;2023-04-15T00:09:06;7.68;;;5.03;;
50769;SDS011;36740;48.698;11.472;2023-04-15T00:11:52;8.65;;;6.18;;
50769;SDS011;36740;48.698;11.472;2023-04-15T00:14:38;6.88;;;3.90;;
50769;SDS011;36740;48.698;11.472;2023-04-15T00:17:23;8.02;;;6.00;;
50769;SDS011;36740;48.698;11.472;2023-04-15T00:20:09;7.60;;;4.20;;
50769;SDS011;36740;48.698;11.472;2023-04-15T00:22:55;9.70;;;4.45;;
50769;SDS011;36740;48.698;11.472;2023-04-15T00:25:41;8.70;;;5.35;;
50769;SDS011;36740;48.698;11.472;2023-04-15T00:28:27;6.03;;;3.97;;
50769;SDS011;36740;48.698;11.472;2023-04-15T00:31:12;8.60;;;4.60;;
50769;SDS011;36740;48.698;11.472;2023-04-15T00:33:58;7.85;;;4.28;;
50769;SDS011;36740;48.698;11.472;2023-04-15T00:36:44;10.38;;;4.60;;
50769;SDS011;36740;48.698;11.472;2023-04-15T00:39:30;6.75;;;4.32;;
50769;SDS011;36740;48.698;11.472;2023-04-15T00:42:15;8.93;;;5.70;;
50769;SDS011;36740;48.698;11.472;2023-04-15T00:45:02;7.47;;;4.38;;
50769;SDS011;36740;48.698;11.472;2023-04-15T00:47:48;9.52;;;5.10;;
50769;SDS011;36740;48.698;11.472;2023-04-15T00:50:33;6.75;;;4.72;;
50769;SDS011;36740;48.698;11.472;2023-04-15T00:53:19;8.30;;;5.57;;
50769;SDS011;36740;48.698;11.472;2023-04-15T00:56:05;9.48;;;4.63;;
50769;SDS011;36740;48.698;11.472;2023-04-15T00:58:51;6.20;;;3.45;;
50769;SDS011;36740;48.698;11.472;2023-04-15T01:01:37;11.80;;;4.90;;
50769;SDS011;36740;48.698;11.472;2023-04-15T01:04:22;10.25;;;5.13;;
50769;SDS011;36740;48.698;11.472;2023-04-15T01:07:08;6.97;;;5.80;;
50769;SDS011;36740;48.698;11.472;2023-04-15T01:09:53;5.03;;;3.72;;
50769;SDS011;36740;48.698;11.472;2023-04-15T01:12:39;6.50;;;4.75;;
50769;SDS011;36740;48.698;11.472;2023-04-15T01:15:25;7.93;;;5.07;;
50769;SDS011;36740;48.698;11.472;2023-04-15T01:18:11;4.80;;;3.53;;
50769;SDS011;36740;48.698;11.472;2023-04-15T01:20:57;6.90;;;4.18;;
50769;SDS011;36740;48.698;11.472;2023-04-15T01:23:46;5.50;;;4.82;;
50769;SDS011;36740;48.698;11.472;2023-04-15T01:26:32;6.93;;;4.30;;
50769;SDS011;36740;48.698;11.472;2023-04-15T01:29:18;7.22;;;5.70;;
50769;SDS011;36740;48.698;11.472;2023-04-15T01:32:04;6.40;;;4.60;;
50769;SDS011;36740;48.698;11.472;2023-04-15T01:34:50;9.25;;;5.70;;
50769;SDS011;36740;48.698;11.472;2023-04-15T01:37:35;7.22;;;4.25;;
50769;SDS011;36740;48.698;11.472;2023-04-15T01:40:21;8.27;;;4.57;;
50769;SDS011;36740;48.698;11.472;2023-04-15T01:43:07;5.07;;;3.50;;
50769;SDS011;36740;48.698;11.472;2023-04-15T01:45:53;9.55;;;5.55;;
50769;SDS011;36740;48.698;11.472;2023-04-15T01:48:39;7.35;;;4.70;;
50769;SDS011;36740;48.698;11.472;2023-04-15T01:51:24;7.68;;;4.68;;
50769;SDS011;36740;48.698;11.472;2023-04-15T01:54:11;8.05;;;4.32;;
50769;SDS011;36740;48.698;11.472;2023-04-15T01:56:57;8.82;;;4.35;;
50769;SDS011;36740;48.698;11.472;2023-04-15T01:59:43;10.35;;;5.90;;
50769;SDS011;36740;48.698;11.472;2023-04-15T02:02:28;4.70;;;3.30;;
50769;SDS011;36740;48.698;11.472;2023-04-15T02:05:15;5.45;;;3.40;;
50769;SDS011;36740;48.698;11.472;2023-04-15T02:08:01;8.23;;;4.43;;
50769;SDS011;36740;48.698;11.472;2023-04-15T02:10:46;6.30;;;3.45;;
50769;SDS011;36740;48.698;11.472;2023-04-15T02:13:32;7.20;;;5.07;;
50769;SDS011;36740;48.698;11.472;2023-04-15T02:16:17;7.65;;;4.32;;
50769;SDS011;36740;48.698;11.472;2023-04-15T02:19:03;8.73;;;5.15;;
50769;SDS011;36740;48.698;11.472;2023-04-15T02:21:49;10.50;;;5.90;;
50769;SDS011;36740;48.698;11.472;2023-04-15T02:24:34;6.88;;;4.40;;
50769;SDS011;36740;48.698;11.472;2023-04-15T02:27:20;8.25;;;4.55;;
50769;SDS011;36740;48.698;11.472;2023-04-15T02:30:06;12.00;;;5.97;;
50769;SDS011;36740;48.698;11.472;2023-04-15T02:32:52;13.18;;;5.97;;
50769;SDS011;36740;48.698;11.472;2023-04-15T02:35:38;11.80;;;6.93;;
50769;SDS011;36740;48.698;11.472;2023-04-15T02:38:26;8.27;;;4.93;;
50769;SDS011;36740;48.698;11.472;2023-04-15T02:41:11;6.80;;;5.13;;
50769;SDS011;36740;48.698;11.472;2023-04-15T02:43:57;7.90;;;4.75;;
50769;SDS011;36740;48.698;11.472;2023-04-15T02:46:43;9.35;;;5.60;;
50769;SDS011;36740;48.698;11.472;2023-04-15T02:49:29;9.20;;;6.40;;
50769;SDS011;36740;48.698;11.472;2023-04-15T02:52:15;7.85;;;5.93;;
50769;SDS011;36740;48.698;11.472;2023-04-15T02:55:01;11.60;;;5.35;;
50769;SDS011;36740;48.698;11.472;2023-04-15T02:57:47;7.60;;;6.03;;
50769;SDS011;36740;48.698;11.472;2023-04-15T03:00:32;9.85;;;6.65;;
50769;SDS011;36740;48.698;11.472;2023-04-15T03:03:18;11.73;;;6.43;;
50769;SDS011;36740;48.698;11.472;2023-04-15T03:06:03;10.27;;;6.28;;
50769;SDS011;36740;48.698;11.472;2023-04-15T03:08:49;12.05;;;7.55;;
50769;SDS011;36740;48.698;11.472;2023-04-15T03:11:35;9.70;;;6.93;;
50769;SDS011;36740;48.698;11.472;2023-04-15T03:14:24;10.18;;;8.05;;
50769;SDS011;36740;48.698;11.472;2023-04-15T03:17:11;15.82;;;7.85;;
50769;SDS011;36740;48.698;11.472;2023-04-15T03:19:56;12.20;;;6.82;;
50769;SDS011;36740;48.698;11.472;2023-04-15T03:22:42;11.80;;;7.00;;
50769;SDS011;36740;48.698;11.472;2023-04-15T03:25:28;12.48;;;7.28;;
50769;SDS011;36740;48.698;11.472;2023-04-15T03:28:13;11.68;;;6.90;;
50769;SDS011;36740;48.698;11.472;2023-04-15T03:30:59;10.63;;;7.90;;
50769;SDS011;36740;48.698;11.472;2023-04-15T03:33:44;12.90;;;7.05;;
50769;SDS011;36740;48.698;11.472;2023-04-15T03:36:30;11.65;;;7.80;;
50769;SDS011;36740;48.698;11.472;2023-04-15T03:39:19;13.02;;;8.60;;
50769;SDS011;36740;48.698;11.472;2023-04-15T03:42:04;14.95;;;8.25;;
50769;SDS011;36740;48.698;11.472;2023-04-15T03:44:50;11.20;;;8.25;;
50769;SDS011;36740;48.698;11.472;2023-04-15T03:47:36;10.57;;;6.85;;
50769;SDS011;36740;48.698;11.472;2023-04-15T03:50:22;14.18;;;9.30;;
50769;SDS011;36740;48.698;11.472;2023-04-15T03:53:07;13.43;;;8.48;;
50769;SDS011;36740;48.698;11.472;2023-04-15T03:55:53;14.23;;;8.90;;
50769;SDS011;36740;48.698;11.472;2023-04-15T03:58:38;14.32;;;9.70;;
50769;SDS011;36740;48.698;11.472;2023-04-15T04:01:24;10.23;;;7.30;;
50769;SDS011;36740;48.698;11.472;2023-04-15T04:04:10;9.43;;;6.47;;
50769;SDS011;36740;48.698;11.472;2023-04-15T04:06:55;12.88;;;9.15;;
50769;SDS011;36740;48.698;11.472;2023-04-15T04:09:41;13.88;;;9.05;;
50769;SDS011;36740;48.698;11.472;2023-04-15T04:12:27;12.30;;;7.55;;
50769;SDS011;36740;48.698;11.472;2023-04-15T04:15:12;11.35;;;7.75;;
50769;SDS011;36740;48.698;11.472;2023-04-15T04:17:58;11.25;;;6.82;;
50769;SDS011;36740;48.698;11.472;2023-04-15T04:20:43;12.60;;;7.97;;
50769;SDS011;36740;48.698;11.472;2023-04-15T04:23:29;12.13;;;7.10;;
50769;SDS011;36740;48.698;11.472;2023-04-15T04:26:15;9.30;;;6.35;;
50769;SDS011;36740;48.698;11.472;2023-04-15T04:29:00;13.05;;;9.10;;
50769;SDS011;36740;48.698;11.472;2023-04-15T04:31:46;12.88;;;7.72;;
50769;SDS011;36740;48.698;11.472;2023-04-15T04:34:33;9.52;;;7.57;;
50769;SDS011;36740;48.698;11.472;2023-04-15T04:37:18;13.18;;;8.57;;
50769;SDS011;36740;48.698;11.472;2023-04-15T04:40:04;12.18;;;8.25;;
50769;SDS011;36740;48.698;11.472;2023-04-15T04:42:50;11.40;;;8.35;;
50769;SDS011;36740;48.698;11.472;2023-04-15T04:45:35;9.23;;;5.68;;
50769;SDS011;36740;48.698;11.472;2023-04-15T04:48:21;10.63;;;7.10;;
50769;SDS011;36740;48.698;11.472;2023-04-15T04:51:07;14.27;;;6.88;;
50769;SDS011;36740;48.698;11.472;2023-04-15T04:53:53;13.90;;;8.15;;
50769;SDS011;36740;48.698;11.472;2023-04-15T04:56:39;10.82;;;5.93;;
50769;SDS011;36740;48.698;11.472;2023-04-15T04:59:25;10.38;;;7.50;;
50769;SDS011;36740;48.698;11.472;2023-04-15T05:02:10;11.38;;;7.28;;
50769;SDS011;36740;48.698;11.472;2023-04-15T05:04:56;11.15;;;7.78;;
50769;SDS011;36740;48.698;11.472;2023-04-15T05:07:42;12.23;;;7.15;;
50769;SDS011;36740;48.698;11.472;2023-04-15T05:10:27;10.40;;;5.50;;
50769;SDS011;36740;48.698;11.472;2023-04-15T05:13:13;12.85;;;8.88;;
50769;SDS011;36740;48.698;11.472;2023-04-15T05:15:59;13.50;;;7.20;;
50769;SDS011;36740;48.698;11.472;2023-04-15T05:18:44;9.93;;;6.38;;
50769;SDS011;36740;48.698;11.472;2023-04-15T05:21:30;11.68;;;7.85;;
50769;SDS011;36740;48.698;11.472;2023-04-15T05:24:16;10.38;;;7.15;;
50769;SDS011;36740;48.698;11.472;2023-04-15T05:27:02;11.20;;;7.47;;
50769;SDS011;36740;48.698;11.472;2023-04-15T05:29:48;10.70;;;6.70;;
50769;SDS011;36740;48.698;11.472;2023-04-15T05:32:33;9.50;;;7.25;;
50769;SDS011;36740;48.698;11.472;2023-04-15T05:35:19;10.23;;;7.85;;
50769;SDS011;36740;48.698;11.472;2023-04-15T05:38:04;11.07;;;6.68;;
50769;SDS011;36740;48.698;11.472;2023-04-15T05:40:50;8.30;;;5.85;;
50769;SDS011;36740;48.698;11.472;2023-04-15T05:43:36;20.27;;;8.43;;
50769;SDS011;36740;48.698;11.472;2023-04-15T05:46:21;9.45;;;7.00;;
50769;SDS011;36740;48.698;11.472;2023-04-15T05:49:07;14.95;;;7.18;;
50769;SDS011;36740;48.698;11.472;2023-04-15T05:51:53;8.40;;;6.85;;
50769;SDS011;36740;48.698;11.472;2023-04-15T05:54:38;11.55;;;6.50;;
50769;SDS011;36740;48.698;11.472;2023-04-15T05:57:24;8.18;;;6.35;;
50769;SDS011;36740;48.698;11.472;2023-04-15T06:00:10;10.25;;;6.90;;
50769;SDS011;36740;48.698;11.472;2023-04-15T06:02:55;14.27;;;7.53;;
50769;SDS011;36740;48.698;11.472;2023-04-15T06:05:42;12.00;;;7.35;;
50769;SDS011;36740;48.698;11.472;2023-04-15T06:08:29;10.40;;;6.75;;
50769;SDS011;36740;48.698;11.472;2023-04-15T06:11:15;8.77;;;6.78;;
50769;SDS011;36740;48.698;11.472;2023-04-15T06:14:00;13.20;;;7.53;;
50769;SDS011;36740;48.698;11.472;2023-04-15T06:16:46;13.65;;;7.78;;
50769;SDS011;36740;48.698;11.472;2023-04-15T06:19:32;14.02;;;8.73;;
50769;SDS011;36740;48.698;11.472;2023-04-15T06:22:17;15.18;;;7.65;;
50769;SDS011;36740;48.698;11.472;2023-04-15T06:25:03;10.38;;;6.43;;
50769;SDS011;36740;48.698;11.472;2023-04-15T06:27:49;11.32;;;7.70;;
50769;SDS011;36740;48.698;11.472;2023-04-15T06:30:35;12.05;;;7.43;;
50769;SDS011;36740;48.698;11.472;2023-04-15T06:33:21;9.02;;;6.82;;
50769;SDS011;36740;48.698;11.472;2023-04-15T06:36:06;16.00;;;7.32;;
50769;SDS011;36740;48.698;11.472;2023-04-15T06:38:52;10.57;;;7.30;;
50769;SDS011;36740;48.698;11.472;2023-04-15T06:41:38;13.20;;;8.63;;
50769;SDS011;36740;48.698;11.472;2023-04-15T06:44:23;13.20;;;6.55;;
50769;SDS011;36740;48.698;11.472;2023-04-15T06:47:09;11.60;;;8.75;;
50769;SDS011;36740;48.698;11.472;2023-04-15T06:49:54;14.93;;;9.40;;
50769;SDS011;36740;48.698;11.472;2023-04-15T06:52:40;11.48;;;7.07;;
50769;SDS011;36740;48.698;11.472;2023-04-15T06:55:26;12.57;;;7.70;;
50769;SDS011;36740;48.698;11.472;2023-04-15T06:58:11;12.38;;;8.75;;
50769;SDS011;36740;48.698;11.472;2023-04-15T07:00:57;10.80;;;8.20;;
50769;SDS011;36740;48.698;11.472;2023-04-15T07:03:43;12.30;;;9.55;;
50769;SDS011;36740;48.698;11.472;2023-04-15T07:06:29;10.80;;;8.75;;
50769;SDS011;36740;48.698;11.472;2023-04-15T07:09:14;9.90;;;7.47;;
50769;SDS011;36740;48.698;11.472;2023-04-15T07:12:00;9.93;;;5.82;;
50769;SDS011;36740;48.698;11.472;2023-04-15T07:14:45;10.00;;;6.75;;
50769;SDS011;36740;48.698;11.472;2023-04-15T07:17:31;11.18;;;6.28;;
50769;SDS011;36740;48.698;11.472;2023-04-15T07:20:17;13.57;;;8.57;;
50769;SDS011;36740;48.698;11.472;2023-04-15T07:23:03;11.10;;;7.53;;
50769;SDS011;36740;48.698;11.472;2023-04-15T07:25:48;9.30;;;6.45;;
50769;SDS011;36740;48.698;11.472;2023-04-15T07:28:34;14.73;;;6.82;;
50769;SDS011;36740;48.698;11.472;2023-04-15T07:31:19;27.02;;;7.68;;
50769;SDS011;36740;48.698;11.472;2023-04-15T07:34:05;12.18;;;7.78;;
50769;SDS011;36740;48.698;11.472;2023-04-15T07:36:51;12.73;;;6.43;;
50769;SDS011;36740;48.698;11.472;2023-04-15T07:39:37;11.18;;;6.75;;
50769;SDS011;36740;48.698;11.472;2023-04-15T07:42:22;9.68;;;7.05;;
50769;SDS011;36740;48.698;11.472;2023-04-15T07:45:08;9.23;;;5.32;;
50769;SDS011;36740;48.698;11.472;2023-04-15T07:47:54;10.48;;;7.45;;
50769;SDS011;36740;48.698;11.472;2023-04-15T07:50:41;8.07;;;5.85;;
50769;SDS011;36740;48.698;11.472;2023-04-15T07:53:27;17.27;;;8.27;;
50769;SDS011;36740;48.698;11.472;2023-04-15T07:56:12;12.82;;;8.30;;
50769;SDS011;36740;48.698;11.472;2023-04-15T07:58:58;12.15;;;7.22;;
50769;SDS011;36740;48.698;11.472;2023-04-15T08:01:46;17.73;;;11.32;;
50769;SDS011;36740;48.698;11.472;2023-04-15T08:04:32;36.17;;;23.48;;
50769;SDS011;36740;48.698;11.472;2023-04-15T08:07:18;28.50;;;20.13;;
50769;SDS011;36740;48.698;11.472;2023-04-15T08:10:03;21.05;;;15.48;;
50769;SDS011;36740;48.698;11.472;2023-04-15T08:12:49;15.40;;;9.50;;
50769;SDS011;36740;48.698;11.472;2023-04-15T08:15:38;10.65;;;9.43;;
50769;SDS011;36740;48.698;11.472;2023-04-15T08:18:24;9.60;;;7.32;;
50769;SDS011;36740;48.698;11.472;2023-04-15T08:21:10;8.70;;;6.28;;
50769;SDS011;36740;48.698;11.472;2023-04-15T08:23:55;8.20;;;6.57;;
50769;SDS011;36740;48.698;11.472;2023-04-15T08:26:41;10.68;;;6.68;;
50769;SDS011;36740;48.698;11.472;2023-04-15T08:29:27;10.07;;;6.90;;
50769;SDS011;36740;48.698;11.472;2023-04-15T08:32:12;9.13;;;6.10;;
50769;SDS011;36740;48.698;11.472;2023-04-15T08:34:58;6.68;;;4.70;;
50769;SDS011;36740;48.698;11.472;2023-04-15T08:37:44;7.15;;;5.15;;
50769;SDS011;36740;48.698;11.472;2023-04-15T08:40:33;9.25;;;5.10;;
50769;SDS011;36740;48.698;11.472;2023-04-15T08:43:21;8.52;;;6.68;;
50769;SDS011;36740;48.698;11.472;2023-04-15T08:48:57;8.73;;;5.22;;
50769;SDS011;36740;48.698;11.472;2023-04-15T08:51:43;9.65;;;5.30;;
50769;SDS011;36740;48.698;11.472;2023-04-15T08:54:29;8.02;;;6.60;;
50769;SDS011;36740;48.698;11.472;2023-04-15T08:57:15;9.73;;;5.50;;
50769;SDS011;36740;48.698;11.472;2023-04-15T09:00:01;10.18;;;6.75;;
50769;SDS011;36740;48.698;11.472;2023-04-15T09:02:47;8.27;;;5.07;;
50769;SDS011;36740;48.698;11.472;2023-04-15T09:05:36;13.45;;;7.93;;
50769;SDS011;36740;48.698;11.472;2023-04-15T09:08:22;8.45;;;5.80;;
50769;SDS011;36740;48.698;11.472;2023-04-15T09:11:09;10.05;;;6.30;;
50769;SDS011;36740;48.698;11.472;2023-04-15T09:13:57;11.00;;;7.07;;
50769;SDS011;36740;48.698;11.472;2023-04-15T09:16:56;9.73;;;5.65;;
50769;SDS011;36740;48.698;11.472;2023-04-15T09:19:42;11.15;;;6.13;;
50769;SDS011;36740;48.698;11.472;2023-04-15T09:22:30;12.13;;;5.82;;
50769;SDS011;36740;48.698;11.472;2023-04-15T09:28:12;16.48;;;7.05;;
50769;SDS011;36740;48.698;11.472;2023-04-15T09:30:58;9.20;;;6.28;;
50769;SDS011;36740;48.698;11.472;2023-04-15T09:33:53;6.85;;;4.38;;
50769;SDS011;36740;48.698;11.472;2023-04-15T09:39:47;9.93;;;5.68;;
50769;SDS011;36740;48.698;11.472;2023-04-15T09:42:32;10.68;;;7.15;;
50769;SDS011;36740;48.698;11.472;2023-04-15T09:45:18;9.25;;;6.43;;
50769;SDS011;36740;48.698;11.472;2023-04-15T09:48:20;12.82;;;5.57;;
50769;SDS011;36740;48.698;11.472;2023-04-15T09:51:06;23.55;;;13.98;;
50769;SDS011;36740;48.698;11.472;2023-04-15T09:53:55;26.75;;;12.32;;
50769;SDS011;36740;48.698;11.472;2023-04-15T09:56:41;16.88;;;7.47;;
50769;SDS011;36740;48.698;11.472;2023-04-15T09:59:27;9.27;;;5.85;;
50769;SDS011;36740;48.698;11.472;2023-04-15T10:02:12;8.80;;;5.72;;
50769;SDS011;36740;48.698;11.472;2023-04-15T10:04:58;7.72;;;4.97;;
50769;SDS011;36740;48.698;11.472;2023-04-15T10:07:44;6.53;;;3.97;;
50769;SDS011;36740;48.698;11.472;2023-04-15T10:10:30;7.47;;;3.78;;
50769;SDS011;36740;48.698;11.472;2023-04-15T10:13:18;7.57;;;4.13;;
50769;SDS011;36740;48.698;11.472;2023-04-15T10:16:13;5.47;;;3.83;;
50769;SDS011;36740;48.698;11.472;2023-04-15T10:19:00;6.05;;;2.92;;
50769;SDS011;36740;48.698;11.472;2023-04-15T10:21:46;3.90;;;2.63;;
50769;SDS011;36740;48.698;11.472;2023-04-15T10:24:32;8.40;;;3.53;;
50769;SDS011;36740;48.698;11.472;2023-04-15T10:27:17;4.00;;;2.35;;
50769;SDS011;36740;48.698;11.472;2023-04-15T10:30:05;8.30;;;3.28;;
50769;SDS011;36740;48.698;11.472;2023-04-15T10:32:51;11.65;;;3.60;;
50769;SDS011;36740;48.698;11.472;2023-04-15T10:35:37;4.05;;;2.45;;
50769;SDS011;36740;48.698;11.472;2023-04-15T10:41:22;5.22;;;2.92;;
50769;SDS011;36740;48.698;11.472;2023-04-15T10:44:08;6.60;;;3.75;;
50769;SDS011;36740;48.698;11.472;2023-04-15T10:46:53;4.13;;;2.15;;
50769;SDS011;36740;48.698;11.472;2023-04-15T10:49:49;4.35;;;2.80;;
50769;SDS011;36740;48.698;11.472;2023-04-15T10:52:36;10.02;;;4.15;;
50769;SDS011;36740;48.698;11.472;2023-04-15T10:55:25;3.65;;;2.60;;
50769;SDS011;36740;48.698;11.472;2023-04-15T10:58:11;6.78;;;2.75;;
50769;SDS011;36740;48.698;11.472;2023-04-15T11:00:59;8.40;;;3.72;;
50769;SDS011;36740;48.698;11.472;2023-04-15T11:03:47;4.80;;;2.55;;
50769;SDS011;36740;48.698;11.472;2023-04-15T11:06:42;4.03;;;1.95;;
50769;SDS011;36740;48.698;11.472;2023-04-15T11:09:31;6.60;;;4.20;;
50769;SDS011;36740;48.698;11.472;2023-04-15T11:12:20;3.70;;;2.10;;
50769;SDS011;36740;48.698;11.472;2023-04-15T11:18:18;5.32;;;2.80;;
50769;SDS011;36740;48.698;11.472;2023-04-15T11:21:04;4.60;;;2.83;;
50769;SDS011;36740;48.698;11.472;2023-04-15T11:23:50;6.22;;;2.65;;
50769;SDS011;36740;48.698;11.472;2023-04-15T11:26:36;5.78;;;2.65;;
50769;SDS011;36740;48.698;11.472;2023-04-15T11:29:21;5.60;;;3.20;;
50769;SDS011;36740;48.698;11.472;2023-04-15T11:32:07;3.58;;;3.22;;
50769;SDS011;36740;48.698;11.472;2023-04-15T11:34:53;5.50;;;4.32;;
50769;SDS011;36740;48.698;11.472;2023-04-15T11:37:39;5.60;;;3.75;;
50769;SDS011;36740;48.698;11.472;2023-04-15T11:40:25;4.47;;;2.97;;
50769;SDS011;36740;48.698;11.472;2023-04-15T11:46:00;5.28;;;3.70;;
50769;SDS011;36740;48.698;11.472;2023-04-15T11:48:46;4.82;;;3.38;;
50769;SDS011;36740;48.698;11.472;2023-04-15T11:51:32;7.78;;;3.40;;
50769;SDS011;36740;48.698;11.472;2023-04-15T11:54:18;3.28;;;2.47;;
50769;SDS011;36740;48.698;11.472;2023-04-15T11:57:04;7.20;;;3.20;;
50769;SDS011;36740;48.698;11.472;2023-04-15T11:59:50;5.85;;;3.78;;
50769;SDS011;36740;48.698;11.472;2023-04-15T12:02:39;5.93;;;4.03;;
50769;SDS011;36740;48.698;11.472;2023-04-15T12:05:24;4.47;;;3.08;;
50769;SDS011;36740;48.698;11.472;2023-04-15T12:08:10;4.65;;;2.10;;
50769;SDS011;36740;48.698;11.472;2023-04-15T12:10:57;4.75;;;2.35;;
50769;SDS011;36740;48.698;11.472;2023-04-15T12:13:44;6.78;;;3.92;;
50769;SDS011;36740;48.698;11.472;2023-04-15T12:16:30;8.15;;;4.53;;
50769;SDS011;36740;48.698;11.472;2023-04-15T12:19:22;7.47;;;5.72;;
50769;SDS011;36740;48.698;11.472;2023-04-15T12:22:09;6.07;;;3.83;;
50769;SDS011;36740;48.698;11.472;2023-04-15T12:24:55;6.13;;;3.65;;
50769;SDS011;36740;48.698;11.472;2023-04-15T12:27:49;5.60;;;4.05;;
50769;SDS011;36740;48.698;11.472;2023-04-15T12:30:34;5.15;;;3.08;;
50769;SDS011;36740;48.698;11.472;2023-04-15T12:33:20;9.63;;;4.80;;
50769;SDS011;36740;48.698;11.472;2023-04-15T12:36:06;7.40;;;3.22;;
50769;SDS011;36740;48.698;11.472;2023-04-15T12:38:52;5.97;;;4.18;;
50769;SDS011;36740;48.698;11.472;2023-04-15T12:41:38;4.03;;;2.85;;
50769;SDS011;36740;48.698;11.472;2023-04-15T12:44:23;4.88;;;3.58;;
50769;SDS011;36740;48.698;11.472;2023-04-15T12:47:09;4.47;;;3.03;;
50769;SDS011;36740;48.698;11.472;2023-04-15T12:49:55;5.85;;;4.50;;
50769;SDS011;36740;48.698;11.472;2023-04-15T12:52:41;3.58;;;2.55;;
50769;SDS011;36740;48.698;11.472;2023-04-15T12:55:26;5.38;;;3.60;;
50769;SDS011;36740;48.698;11.472;2023-04-15T12:58:12;3.05;;;2.40;;
50769;SDS011;36740;48.698;11.472;2023-04-15T13:00:58;5.97;;;4.00;;
50769;SDS011;36740;48.698;11.472;2023-04-15T13:03:43;5.32;;;3.58;;
50769;SDS011;36740;48.698;11.472;2023-04-15T13:06:29;5.32;;;3.40;;
50769;SDS011;36740;48.698;11.472;2023-04-15T13:09:17;3.38;;;2.60;;
50769;SDS011;36740;48.698;11.472;2023-04-15T13:12:03;6.45;;;3.42;;
50769;SDS011;36740;48.698;11.472;2023-04-15T13:14:49;5.90;;;4.53;;
50769;SDS011;36740;48.698;11.472;2023-04-15T13:17:35;9.73;;;3.83;;
50769;SDS011;36740;48.698;11.472;2023-04-15T13:20:20;7.80;;;3.58;;
50769;SDS011;36740;48.698;11.472;2023-04-15T13:23:06;5.90;;;4.50;;
50769;SDS011;36740;48.698;11.472;2023-04-15T13:25:52;7.10;;;3.67;;
50769;SDS011;36740;48.698;11.472;2023-04-15T13:28:38;7.43;;;4.50;;
50769;SDS011;36740;48.698;11.472;2023-04-15T13:31:24;5.68;;;3.88;;
50769;SDS011;36740;48.698;11.472;2023-04-15T13:34:09;4.90;;;3.47;;
50769;SDS011;36740;48.698;11.472;2023-04-15T13:36:55;6.07;;;3.83;;
50769;SDS011;36740;48.698;11.472;2023-04-15T13:39:41;6.53;;;4.18;;
50769;SDS011;36740;48.698;11.472;2023-04-15T13:42:26;4.07;;;2.85;;
50769;SDS011;36740;48.698;11.472;2023-04-15T13:45:12;4.75;;;3.08;;
50769;SDS011;36740;48.698;11.472;2023-04-15T13:47:58;3.72;;;3.35;;
50769;SDS011;36740;48.698;11.472;2023-04-15T13:50:43;3.78;;;2.75;;
50769;SDS011;36740;48.698;11.472;2023-04-15T13:53:29;4.80;;;2.28;;
50769;SDS011;36740;48.698;11.472;2023-04-15T13:56:15;3.40;;;2.35;;
50769;SDS011;36740;48.698;11.472;2023-04-15T13:59:01;4.40;;;3.00;;
50769;SDS011;36740;48.698;11.472;2023-04-15T14:01:47;3.92;;;1.95;;
50769;SDS011;36740;48.698;11.472;2023-04-15T14:04:33;3.65;;;2.63;;
50769;SDS011;36740;48.698;11.472;2023-04-15T14:07:18;2.67;;;2.10;;
50769;SDS011;36740;48.698;11.472;2023-04-15T14:10:04;5.05;;;2.42;;
50769;SDS011;36740;48.698;11.472;2023-04-15T14:12:50;6.45;;;3.10;;
50769;SDS011;36740;48.698;11.472;2023-04-15T14:15:35;4.70;;;2.20;;
50769;SDS011;36740;48.698;11.472;2023-04-15T14:18:21;2.70;;;1.77;;
50769;SDS011;36740;48.698;11.472;2023-04-15T14:21:07;3.60;;;2.58;;
50769;SDS011;36740;48.698;11.472;2023-04-15T14:23:53;4.97;;;3.13;;
50769;SDS011;36740;48.698;11.472;2023-04-15T14:26:38;3.30;;;2.70;;
50769;SDS011;36740;48.698;11.472;2023-04-15T14:29:24;5.28;;;2.83;;
50769;SDS011;36740;48.698;11.472;2023-04-15T14:32:10;4.57;;;3.33;;
50769;SDS011;36740;48.698;11.472;2023-04-15T14:34:56;11.25;;;2.90;;
50769;SDS011;36740;48.698;11.472;2023-04-15T14:37:41;4.60;;;3.30;;
50769;SDS011;36740;48.698;11.472;2023-04-15T14:40:27;2.92;;;2.38;;
50769;SDS011;36740;48.698;11.472;2023-04-15T14:43:13;3.83;;;3.00;;
50769;SDS011;36740;48.698;11.472;2023-04-15T14:45:58;4.68;;;2.28;;
50769;SDS011;36740;48.698;11.472;2023-04-15T14:48:44;4.03;;;2.88;;
50769;SDS011;36740;48.698;11.472;2023-04-15T14:51:30;4.63;;;2.42;;
50769;SDS011;36740;48.698;11.472;2023-04-15T14:54:16;4.82;;;2.50;;
50769;SDS011;36740;48.698;11.472;2023-04-15T14:57:01;3.05;;;1.70;;
50769;SDS011;36740;48.698;11.472;2023-04-15T14:59:47;3.67;;;2.33;;
50769;SDS011;36740;48.698;11.472;2023-04-15T15:02:33;3.53;;;2.33;;
50769;SDS011;36740;48.698;11.472;2023-04-15T15:05:19;2.72;;;2.33;;
50769;SDS011;36740;48.698;11.472;2023-04-15T15:08:05;5.55;;;2.22;;
50769;SDS011;36740;48.698;11.472;2023-04-15T15:10:57;2.72;;;2.28;;
50769;SDS011;36740;48.698;11.472;2023-04-15T15:13:45;4.38;;;2.80;;
50769;SDS011;36740;48.698;11.472;2023-04-15T15:16:31;1.27;;;1.17;;
50769;SDS011;36740;48.698;11.472;2023-04-15T15:19:17;3.03;;;1.65;;
50769;SDS011;36740;48.698;11.472;2023-04-15T15:22:02;3.60;;;2.25;;
50769;SDS011;36740;48.698;11.472;2023-04-15T15:24:48;3.40;;;2.17;;
50769;SDS011;36740;48.698;11.472;2023-04-15T15:27:34;3.85;;;1.98;;
50769;SDS011;36740;48.698;11.472;2023-04-15T15:30:19;4.68;;;3.28;;
50769;SDS011;36740;48.698;11.472;2023-04-15T15:33:05;2.85;;;2.08;;
50769;SDS011;36740;48.698;11.472;2023-04-15T15:35:51;1.85;;;1.75;;
50769;SDS011;36740;48.698;11.472;2023-04-15T15:38:37;6.80;;;3.25;;
50769;SDS011;36740;48.698;11.472;2023-04-15T15:41:24;3.00;;;1.67;;
50769;SDS011;36740;48.698;11.472;2023-04-15T15:44:10;2.65;;;1.70;;
50769;SDS011;36740;48.698;11.472;2023-04-15T15:46:56;3.63;;;1.92;;
50769;SDS011;36740;48.698;11.472;2023-04-15T15:49:41;2.45;;;1.63;;
50769;SDS011;36740;48.698;11.472;2023-04-15T15:52:28;2.70;;;1.70;;
50769;SDS011;36740;48.698;11.472;2023-04-15T15:55:14;3.08;;;2.75;;
50769;SDS011;36740;48.698;11.472;2023-04-15T15:58:00;4.10;;;1.77;;
50769;SDS011;36740;48.698;11.472;2023-04-15T16:00:45;2.97;;;1.67;;
50769;SDS011;36740;48.698;11.472;2023-04-15T16:03:31;3.15;;;2.85;;
50769;SDS011;36740;48.698;11.472;2023-04-15T16:06:17;3.15;;;2.45;;
50769;SDS011;36740;48.698;11.472;2023-04-15T16:09:23;2.97;;;2.45;;
50769;SDS011;36740;48.698;11.472;2023-04-15T16:12:08;3.30;;;2.45;;
50769;SDS011;36740;48.698;11.472;2023-04-15T16:14:54;3.88;;;2.22;;
50769;SDS011;36740;48.698;11.472;2023-04-15T16:17:39;3.15;;;2.45;;
50769;SDS011;36740;48.698;11.472;2023-04-15T16:20:25;2.58;;;1.77;;
50769;SDS011;36740;48.698;11.472;2023-04-15T16:23:13;5.82;;;3.20;;
50769;SDS011;36740;48.698;11.472;2023-04-15T16:25:59;3.28;;;2.53;;
50769;SDS011;36740;48.698;11.472;2023-04-15T16:28:45;2.90;;;1.90;;
50769;SDS011;36740;48.698;11.472;2023-04-15T16:31:31;3.33;;;3.03;;
50769;SDS011;36740;48.698;11.472;2023-04-15T16:34:16;3.53;;;2.58;;
50769;SDS011;36740;48.698;11.472;2023-04-15T16:37:02;4.60;;;3.05;;
50769;SDS011;36740;48.698;11.472;2023-04-15T16:39:48;3.63;;;2.72;;